Abbots Langley, United Kingdom
Current Conditions -  °F | °C
As of 11:50 PM on Friday 19 Dec 2014 (Local Time) from EGWU Reporting Station
Clear Clear  
Wind Chill: 36°   Ceiling: Unl
Heat Index: 41°   Visibility: 6mi
Dew Point: 36°   Wind: 8mph
Humidity: 81%   Direction: 230°SW
Pressure: 30.21"   Gusts: NA
Location:  51.71°N, 0.42°W
Report Text: EGWU 192350Z AUTO 23007KT 9999 // NCD 05/02 Q1023
Loading
Personal Weather Stations






























Interactive Weather Map New forecast layout! Learn more

10-Day Weather Forecast

Advertisements
Track Severe Weather on mobile